Time;durP1;ratioP1;P1;durP2;ratioP2;P2;SDS_P1;SDS_P2;PMS_P1;PMS_P2;Temp;Humidity;BMP_temperature;BMP_pressure;BME280_temperature;BME280_humidity;BME280_pressure;Samples;Min_cycle;Max_cycle;Signal;HPM_P1;HPM_P2
2021/10/11 00:02:10;;;;;;;56.90;46.83;;;12.80;81.30;;;;;;5054419;28;20438;-76
2021/10/11 00:04:38;;;;;;;53.33;41.37;;;12.80;81.50;;;;;;5054181;28;20899;-76
2021/10/11 00:07:08;;;;;;;54.53;42.60;;;12.80;81.30;;;;;;5054404;28;20438;-76
2021/10/11 00:09:35;;;;;;;54.47;43.93;;;12.70;80.60;;;;;;5054067;28;20437;-76
2021/10/11 00:12:01;;;;;;;54.00;45.47;;;12.70;80.60;;;;;;5054280;28;20452;-76
2021/10/11 00:14:28;;;;;;;64.93;45.23;;;12.70;81.10;;;;;;5054290;28;20497;-76
2021/10/11 00:16:55;;;;;;;49.73;42.80;;;12.80;82.00;;;;;;5054164;28;20484;-76
2021/10/11 00:19:22;;;;;;;61.73;47.20;;;12.80;82.40;;;;;;5054176;28;20442;-76
2021/10/11 00:21:49;;;;;;;58.37;46.47;;;12.80;82.70;;;;;;5053948;28;20441;-76
2021/10/11 00:24:17;;;;;;;60.30;46.80;;;12.80;83.30;;;;;;5054066;28;20466;-76
2021/10/11 00:26:44;;;;;;;61.60;46.80;;;12.80;83.50;;;;;;5053685;28;20444;-76
2021/10/11 00:29:10;;;;;;;65.20;49.10;;;12.80;84.00;;;;;;5054007;28;20452;-76
2021/10/11 00:31:37;;;;;;;65.37;49.47;;;12.90;84.60;;;;;;5053956;28;20491;-76
2021/10/11 00:34:04;;;;;;;69.50;54.30;;;12.90;84.90;;;;;;5053575;28;20975;-76
2021/10/11 00:36:30;;;;;;;74.37;54.90;;;12.80;84.80;;;;;;5053193;28;20548;-76
2021/10/11 00:38:57;;;;;;;69.67;52.40;;;12.80;85.20;;;;;;5053849;28;20468;-76
2021/10/11 00:41:27;;;;;;;72.40;50.40;;;12.80;85.70;;;;;;5053811;28;20453;-76
2021/10/11 00:43:55;;;;;;;61.77;49.33;;;12.80;86.50;;;;;;5053724;28;20470;-76
2021/10/11 00:46:22;;;;;;;69.83;52.67;;;12.80;87.00;;;;;;5053407;28;20437;-76
2021/10/11 00:48:48;;;;;;;64.73;51.60;;;12.80;87.50;;;;;;5053707;28;20499;-76
2021/10/11 00:51:15;;;;;;;72.80;52.33;;;12.80;87.70;;;;;;5053651;28;20452;-76
2021/10/11 00:53:42;;;;;;;64.80;52.93;;;12.80;87.80;;;;;;5053552;28;20461;-76
2021/10/11 00:56:09;;;;;;;71.47;54.07;;;12.90;88.20;;;;;;5053482;28;20481;-76
2021/10/11 00:58:37;;;;;;;71.00;51.77;;;12.90;88.30;;;;;;5053291;28;20437;-76
2021/10/11 01:01:04;;;;;;;71.00;52.20;;;13.00;88.70;;;;;;5053493;28;20448;-75
2021/10/11 01:03:31;;;;;;;67.17;54.87;;;13.00;88.70;;;;;;5053380;28;20465;-76
2021/10/11 01:05:57;;;;;;;73.90;53.10;;;13.00;88.70;;;;;;5053408;28;20452;-76
2021/10/11 01:08:24;;;;;;;76.37;55.17;;;13.00;88.80;;;;;;5053409;28;20495;-75
2021/10/11 01:10:51;;;;;;;72.17;54.90;;;13.00;89.30;;;;;;5053432;28;20425;-75
2021/10/11 01:13:18;;;;;;;69.40;53.83;;;13.00;89.60;;;;;;5053323;28;20870;-75
2021/10/11 01:15:46;;;;;;;75.80;54.97;;;12.90;89.50;;;;;;5053268;28;20477;-74
2021/10/11 01:18:13;;;;;;;73.60;58.20;;;12.90;89.90;;;;;;5053292;28;20445;-74
2021/10/11 01:20:41;;;;;;;77.47;59.20;;;12.80;90.00;;;;;;5052974;28;20950;-74
2021/10/11 01:23:07;;;;;;;85.57;60.20;;;12.90;90.30;;;;;;5052788;28;20828;-74
2021/10/11 01:25:34;;;;;;;84.87;60.83;;;12.90;90.50;;;;;;5053311;28;20464;-74
2021/10/11 01:28:01;;;;;;;91.73;63.63;;;12.80;90.60;;;;;;5053214;28;20499;-74
2021/10/11 01:30:28;;;;;;;85.80;63.03;;;12.80;90.80;;;;;;5053195;28;20449;-74
2021/10/11 01:32:55;;;;;;;86.70;60.80;;;12.80;91.00;;;;;;5053093;28;20877;-74
2021/10/11 01:35:22;;;;;;;81.10;60.10;;;12.80;91.30;;;;;;5053057;28;20449;-75
2021/10/11 01:37:50;;;;;;;91.97;64.87;;;12.90;91.50;;;;;;5053209;28;20495;-74
2021/10/11 01:40:19;;;;;;;82.07;59.17;;;12.80;91.50;;;;;;5052859;28;20806;-74
2021/10/11 01:42:45;;;;;;;89.00;62.60;;;12.90;91.60;;;;;;5053081;28;20473;-73
2021/10/11 01:45:12;;;;;;;95.13;64.97;;;12.90;91.70;;;;;;5053160;28;20445;-74
2021/10/11 01:47:39;;;;;;;90.70;63.50;;;12.90;91.80;;;;;;5054946;28;20448;-74
2021/10/11 01:50:07;;;;;;;85.17;64.10;;;12.80;92.00;;;;;;5057018;28;20468;-74
2021/10/11 01:52:35;;;;;;;97.90;65.07;;;12.80;92.20;;;;;;5056934;28;20847;-74
2021/10/11 01:55:04;;;;;;;93.97;63.53;;;12.80;92.30;;;;;;5056908;28;20449;-75
2021/10/11 01:57:30;;;;;;;93.80;66.37;;;12.80;92.50;;;;;;5056773;28;20484;-75
2021/10/11 01:59:57;;;;;;;100.43;64.80;;;12.80;92.70;;;;;;5056846;28;20452;-75
2021/10/11 02:02:24;;;;;;;94.00;65.30;;;12.80;92.80;;;;;;5056685;28;20867;-75
2021/10/11 02:04:51;;;;;;;99.63;65.27;;;12.90;92.80;;;;;;5056474;28;20926;-75
2021/10/11 02:07:17;;;;;;;93.13;67.83;;;12.90;92.90;;;;;;5056669;28;20512;-75
2021/10/11 02:09:44;;;;;;;96.57;64.87;;;12.90;93.10;;;;;;5056636;28;20449;-75
2021/10/11 02:12:12;;;;;;;98.50;67.13;;;12.90;93.00;;;;;;5056510;28;20449;-76
2021/10/11 02:14:39;;;;;;;91.53;62.80;;;12.90;93.10;;;;;;5056556;28;20441;-75
2021/10/11 02:17:05;;;;;;;102.73;67.40;;;12.90;93.20;;;;;;5056435;28;20485;-76
2021/10/11 02:19:32;;;;;;;101.53;68.00;;;12.90;93.40;;;;;;5056448;28;20449;-76
2021/10/11 02:21:59;;;;;;;91.50;62.77;;;12.90;93.60;;;;;;5056675;28;20959;-75
2021/10/11 02:24:26;;;;;;;102.60;66.07;;;12.90;93.70;;;;;;5056282;28;20465;-75
2021/10/11 02:26:52;;;;;;;97.97;61.97;;;12.90;93.70;;;;;;5056307;28;20441;-75
2021/10/11 02:29:20;;;;;;;91.20;59.90;;;12.90;93.90;;;;;;5056292;28;20442;-75
2021/10/11 02:31:47;;;;;;;90.17;62.77;;;12.90;94.00;;;;;;5056238;28;20456;-76
2021/10/11 02:34:14;;;;;;;92.03;59.10;;;12.90;94.00;;;;;;5056145;28;20511;-75
2021/10/11 02:36:41;;;;;;;84.13;58.93;;;12.80;94.40;;;;;;5056066;28;20472;-74
2021/10/11 02:39:07;;;;;;;83.57;58.20;;;12.80;94.60;;;;;;5056128;28;20850;-74
2021/10/11 02:41:34;;;;;;;79.43;54.47;;;12.90;94.80;;;;;;5056034;28;20446;-74
2021/10/11 02:44:01;;;;;;;76.40;55.63;;;12.90;94.90;;;;;;5055932;28;20466;-74
2021/10/11 02:46:29;;;;;;;73.07;52.17;;;12.90;95.00;;;;;;5055630;28;20935;-74
2021/10/11 02:48:56;;;;;;;63.83;46.77;;;12.90;95.00;;;;;;5055890;28;20457;-75
2021/10/11 02:51:22;;;;;;;72.40;48.77;;;12.90;95.20;;;;;;5055887;28;20426;-75
2021/10/11 02:53:50;;;;;;;67.03;46.27;;;12.90;95.30;;;;;;5055743;28;20465;-74
2021/10/11 02:56:17;;;;;;;64.50;47.50;;;13.00;95.40;;;;;;5055399;28;21048;-75
2021/10/11 02:58:43;;;;;;;60.87;44.60;;;13.10;95.40;;;;;;5054748;28;20456;-75
2021/10/11 03:01:10;;;;;;;63.93;45.93;;;13.10;95.50;;;;;;5055703;28;20454;-75
2021/10/11 03:03:39;;;;;;;59.63;43.33;;;13.10;95.50;;;;;;5055246;28;20971;-75
2021/10/11 03:06:06;;;;;;;56.37;42.27;;;13.20;95.60;;;;;;5055562;28;20458;-75
2021/10/11 03:08:33;;;;;;;58.07;40.20;;;13.20;95.60;;;;;;5055489;28;20442;-75
2021/10/11 03:11:00;;;;;;;46.97;38.40;;;13.20;95.50;;;;;;5055497;28;20531;-75
2021/10/11 03:13:28;;;;;;;52.60;38.20;;;13.30;95.50;;;;;;5055352;28;20806;-75
2021/10/11 03:15:54;;;;;;;49.27;36.30;;;13.30;95.40;;;;;;5055046;28;20781;-75
2021/10/11 03:18:22;;;;;;;42.80;33.90;;;13.40;95.40;;;;;;5055338;28;20441;-75
2021/10/11 03:20:50;;;;;;;42.93;31.57;;;13.40;95.30;;;;;;5055033;28;20441;-75
2021/10/11 03:23:17;;;;;;;39.63;31.03;;;13.40;95.30;;;;;;5054903;28;20540;-75
2021/10/11 03:25:44;;;;;;;37.67;29.47;;;13.40;95.50;;;;;;5054894;28;20446;-75
2021/10/11 03:28:11;;;;;;;39.10;29.87;;;13.40;95.50;;;;;;5055230;28;20445;-75
2021/10/11 03:30:37;;;;;;;39.77;29.53;;;13.40;95.60;;;;;;5055163;28;20870;-75
2021/10/11 03:33:04;;;;;;;41.63;30.53;;;13.40;95.50;;;;;;5055069;28;20472;-75
2021/10/11 03:35:31;;;;;;;44.57;30.57;;;13.50;95.70;;;;;;5054728;28;20931;-75
2021/10/11 03:37:59;;;;;;;37.30;27.83;;;13.50;95.70;;;;;;5054859;28;20986;-75
2021/10/11 03:40:26;;;;;;;37.90;29.90;;;13.50;95.70;;;;;;5054989;28;20478;-75
2021/10/11 03:42:52;;;;;;;37.83;29.80;;;13.50;95.70;;;;;;5054849;28;20476;-75
2021/10/11 03:45:19;;;;;;;41.77;31.00;;;13.50;95.80;;;;;;5054881;28;20457;-75
2021/10/11 03:47:46;;;;;;;40.50;29.17;;;13.50;95.80;;;;;;5054787;28;20437;-75
2021/10/11 03:50:13;;;;;;;36.37;28.03;;;13.50;95.90;;;;;;5054424;28;20813;-75
2021/10/11 03:52:39;;;;;;;36.67;28.80;;;13.50;95.80;;;;;;5054636;28;20461;-75
2021/10/11 03:55:08;;;;;;;43.13;30.57;;;13.60;96.00;;;;;;5054651;28;20436;-75
2021/10/11 03:57:35;;;;;;;42.27;29.50;;;13.60;96.00;;;;;;5054491;28;20512;-75
2021/10/11 04:00:03;;;;;;;39.37;28.20;;;13.50;95.90;;;;;;5054579;28;20457;-75
2021/10/11 04:02:30;;;;;;;39.57;28.20;;;13.60;96.00;;;;;;5054167;28;20839;-75
2021/10/11 04:04:56;;;;;;;41.27;29.77;;;13.60;96.00;;;;;;5054707;28;20446;-75
2021/10/11 04:07:23;;;;;;;39.07;30.30;;;13.60;96.00;;;;;;5054493;28;20483;-75
2021/10/11 04:09:50;;;;;;;41.40;29.47;;;13.60;96.00;;;;;;5054178;28;20456;-75
2021/10/11 04:12:20;;;;;;;35.43;28.00;;;13.60;96.00;;;;;;5053624;28;20451;-75
2021/10/11 04:14:47;;;;;;;43.53;29.67;;;13.70;95.90;;;;;;5054288;28;20453;-75
2021/10/11 04:17:14;;;;;;;36.90;28.47;;;13.70;95.90;;;;;;5054175;28;20477;-75
2021/10/11 04:19:40;;;;;;;35.37;28.20;;;13.70;95.80;;;;;;5054172;28;20454;-75
2021/10/11 04:22:07;;;;;;;36.10;27.40;;;13.70;95.90;;;;;;5053943;28;20462;-76
2021/10/11 04:24:34;;;;;;;34.83;28.27;;;13.70;95.80;;;;;;5054114;28;20446;-75
2021/10/11 04:27:01;;;;;;;36.40;26.03;;;13.80;95.90;;;;;;5054119;28;20422;-76
2021/10/11 04:29:29;;;;;;;38.70;28.13;;;13.70;95.80;;;;;;5054012;28;20453;-75
2021/10/11 04:31:55;;;;;;;35.67;27.17;;;13.80;95.90;;;;;;5053969;28;20446;-75
2021/10/11 04:34:39;;;;;;;34.47;25.30;;;13.70;95.70;;;;;;5053916;28;20515;-75
2021/10/11 04:37:26;;;;;;;30.77;23.17;;;13.70;95.70;;;;;;5053479;28;20825;-75
2021/10/11 04:39:59;;;;;;;31.70;23.33;;;13.70;95.80;;;;;;5053637;28;20509;-75
2021/10/11 04:42:25;;;;;;;34.60;24.03;;;13.70;95.80;;;;;;5053713;28;20892;-73
2021/10/11 04:44:53;;;;;;;33.50;22.87;;;13.70;95.80;;;;;;5053801;28;20446;-74
2021/10/11 04:47:20;;;;;;;30.03;20.90;;;13.70;95.80;;;;;;5053728;28;20496;-74
2021/10/11 04:49:47;;;;;;;27.47;21.03;;;13.70;95.80;;;;;;5053369;28;20441;-74
2021/10/11 04:52:13;;;;;;;27.63;20.07;;;13.70;95.90;;;;;;5053534;28;20867;-74
2021/10/11 04:54:40;;;;;;;28.97;19.30;;;13.70;95.80;;;;;;5053583;28;20452;-74
2021/10/11 04:57:07;;;;;;;26.47;20.53;;;13.70;95.90;;;;;;5053751;28;20477;-74
2021/10/11 04:59:33;;;;;;;25.77;19.20;;;13.70;95.90;;;;;;5053266;28;20983;-74
2021/10/11 05:02:01;;;;;;;23.43;18.87;;;13.70;96.00;;;;;;5053540;28;20449;-73
2021/10/11 05:04:28;;;;;;;29.73;19.57;;;13.70;96.00;;;;;;5053430;28;20461;-74
2021/10/11 05:06:55;;;;;;;26.93;18.10;;;13.70;96.00;;;;;;5053737;28;20437;-73
2021/10/11 05:09:22;;;;;;;22.00;16.30;;;13.70;96.00;;;;;;5053345;28;20931;-74
2021/10/11 05:11:48;;;;;;;25.97;17.37;;;13.70;96.00;;;;;;5053810;28;20440;-73
2021/10/11 05:14:15;;;;;;;26.23;18.40;;;13.60;96.00;;;;;;5053002;28;20469;-73
2021/10/11 05:16:42;;;;;;;28.20;17.07;;;13.70;96.10;;;;;;5053249;28;20468;-74
2021/10/11 05:19:10;;;;;;;25.30;16.67;;;13.60;96.10;;;;;;5053396;28;20872;-73
2021/10/11 05:21:37;;;;;;;21.47;15.90;;;13.70;96.20;;;;;;5054092;28;20445;-73
2021/10/11 05:24:04;;;;;;;19.67;15.90;;;13.70;96.20;;;;;;5060645;28;20466;-74
2021/10/11 05:26:31;;;;;;;21.20;16.53;;;13.70;96.20;;;;;;5060026;28;20433;-74
2021/10/11 05:28:58;;;;;;;22.33;15.97;;;13.70;96.20;;;;;;5059678;28;20934;-74
2021/10/11 05:31:25;;;;;;;23.20;14.80;;;13.70;96.20;;;;;;5059893;28;20449;-75
2021/10/11 05:33:52;;;;;;;22.77;14.63;;;13.70;96.30;;;;;;5059918;28;20465;-75
2021/10/11 05:36:20;;;;;;;22.30;14.17;;;13.60;96.20;;;;;;5059867;28;20441;-75
2021/10/11 05:38:47;;;;;;;22.27;15.53;;;13.60;96.30;;;;;;5059812;28;20485;-74
2021/10/11 05:41:13;;;;;;;21.77;14.90;;;13.70;96.30;;;;;;5059845;28;20524;-74
2021/10/11 05:43:40;;;;;;;19.13;14.33;;;13.70;96.30;;;;;;5059707;28;21002;-74
2021/10/11 05:46:07;;;;;;;19.73;13.33;;;13.70;96.30;;;;;;5059479;28;20851;-74
2021/10/11 05:48:33;;;;;;;21.60;12.67;;;13.60;96.30;;;;;;5059744;28;20449;-74
2021/10/11 05:51:00;;;;;;;18.27;12.60;;;13.60;96.20;;;;;;5059778;28;20429;-74
2021/10/11 05:53:28;;;;;;;16.67;12.20;;;13.60;96.30;;;;;;5059658;28;20468;-74
2021/10/11 05:55:55;;;;;;;19.57;11.87;;;13.70;96.20;;;;;;5059691;28;20448;-74
2021/10/11 05:58:22;;;;;;;20.67;11.50;;;13.70;96.20;;;;;;5059557;28;20484;-74
2021/10/11 06:00:49;;;;;;;21.20;12.17;;;13.70;96.20;;;;;;5059663;28;20445;-74
2021/10/11 06:03:16;;;;;;;20.90;11.87;;;13.70;96.20;;;;;;5059835;28;20461;-74
2021/10/11 06:05:42;;;;;;;17.50;11.20;;;13.70;96.10;;;;;;5059644;28;20445;-74
2021/10/11 06:08:09;;;;;;;17.30;10.60;;;13.70;96.10;;;;;;5059610;28;20441;-74
2021/10/11 06:10:38;;;;;;;16.63;11.07;;;13.70;96.00;;;;;;5059767;28;20450;-74
2021/10/11 06:13:04;;;;;;;15.53;11.43;;;13.70;95.90;;;;;;5059135;28;20849;-74
2021/10/11 06:15:31;;;;;;;17.43;10.20;;;13.70;95.80;;;;;;5059202;28;20441;-74
2021/10/11 06:17:58;;;;;;;13.80;9.13;;;13.70;95.70;;;;;;5059474;28;20886;-74
2021/10/11 06:20:25;;;;;;;17.33;10.50;;;13.70;95.60;;;;;;5059153;28;20950;-74
2021/10/11 06:22:51;;;;;;;15.93;9.77;;;13.70;95.50;;;;;;5059216;28;20473;-74
2021/10/11 06:25:18;;;;;;;14.33;8.97;;;13.70;95.50;;;;;;5059111;28;20952;-74
2021/10/11 06:27:46;;;;;;;16.10;10.10;;;13.70;95.70;;;;;;5059368;28;20441;-74
2021/10/11 06:30:13;;;;;;;16.90;8.97;;;13.70;95.20;;;;;;5059063;28;20813;-74
2021/10/11 06:32:40;;;;;;;17.97;10.50;;;13.60;95.10;;;;;;5059282;28;20460;-74
2021/10/11 06:35:08;;;;;;;15.70;9.33;;;13.70;95.00;;;;;;5055322;28;20449;-74
2021/10/11 06:37:35;;;;;;;10.43;8.70;;;13.70;95.10;;;;;;5056177;28;20869;-74
2021/10/11 06:40:02;;;;;;;14.87;9.60;;;13.70;95.00;;;;;;5057045;28;20446;-74
2021/10/11 06:42:28;;;;;;;12.30;9.00;;;13.70;94.90;;;;;;5057941;28;20465;-74
2021/10/11 06:44:56;;;;;;;16.67;9.23;;;13.70;94.80;;;;;;5059262;28;20960;-74
2021/10/11 06:47:23;;;;;;;11.40;8.70;;;13.80;94.70;;;;;;5057367;28;20445;-74
2021/10/11 06:49:50;;;;;;;16.90;9.20;;;13.70;94.50;;;;;;5056805;28;20452;-74
2021/10/11 06:52:17;;;;;;;21.57;9.47;;;13.70;94.40;;;;;;5059432;28;20436;-74
2021/10/11 06:54:43;;;;;;;27.13;10.27;;;13.70;94.30;;;;;;5058626;28;20453;-75
2021/10/11 06:57:10;;;;;;;21.97;9.67;;;13.70;94.00;;;;;;5056002;28;20426;-74
2021/10/11 06:59:38;;;;;;;19.03;8.97;;;13.70;93.90;;;;;;5056809;28;20429;-74
2021/10/11 07:02:06;;;;;;;13.60;8.13;;;13.70;93.90;;;;;;5056483;28;20445;-75
2021/10/11 07:04:33;;;;;;;15.53;10.43;;;13.70;93.80;;;;;;5055885;28;20958;-74
2021/10/11 07:07:00;;;;;;;14.10;8.57;;;13.60;93.80;;;;;;5056121;28;20434;-74
2021/10/11 07:09:26;;;;;;;15.37;10.87;;;13.70;93.80;;;;;;5055844;28;20450;-74
2021/10/11 07:11:53;;;;;;;13.90;9.30;;;13.70;93.80;;;;;;5055586;28;20441;-74
2021/10/11 07:14:20;;;;;;;16.10;9.57;;;13.70;93.80;;;;;;5055428;28;20472;-74
2021/10/11 07:16:47;;;;;;;14.70;8.77;;;13.70;93.80;;;;;;5055408;28;20446;-74
2021/10/11 07:19:15;;;;;;;13.53;9.40;;;13.70;93.70;;;;;;5055022;28;20477;-74
2021/10/11 07:21:42;;;;;;;19.47;10.30;;;13.70;93.80;;;;;;5054948;28;20961;-74
2021/10/11 07:24:11;;;;;;;15.17;9.10;;;13.80;93.90;;;;;;5055252;28;20466;-74
2021/10/11 07:26:38;;;;;;;21.93;10.00;;;13.70;94.00;;;;;;5055267;28;20541;-74
2021/10/11 07:29:06;;;;;;;17.20;10.00;;;13.80;94.50;;;;;;5055253;28;20449;-74
2021/10/11 07:31:33;;;;;;;15.20;8.70;;;13.80;94.20;;;;;;5055206;28;20437;-74
2021/10/11 07:33:59;;;;;;;11.00;8.73;;;13.90;94.30;;;;;;5055068;28;20519;-74
2021/10/11 07:36:27;;;;;;;12.80;8.53;;;13.90;94.20;;;;;;5055082;28;20446;-74
2021/10/11 07:38:54;;;;;;;14.33;8.77;;;13.90;94.10;;;;;;5054930;28;20481;-74
2021/10/11 07:41:21;;;;;;;15.87;8.77;;;14.00;94.50;;;;;;5055213;28;20441;-74
2021/10/11 07:43:47;;;;;;;12.23;7.97;;;14.00;94.20;;;;;;5055207;28;20466;-74
2021/10/11 07:46:15;;;;;;;16.27;8.53;;;14.10;94.30;;;;;;5054716;28;20450;-74
2021/10/11 07:48:42;;;;;;;15.80;8.50;;;14.20;94.40;;;;;;5055006;28;20433;-74
2021/10/11 07:51:09;;;;;;;18.00;8.10;;;14.30;94.10;;;;;;5054761;28;20467;-74
2021/10/11 07:53:37;;;;;;;13.40;7.10;;;14.40;93.70;;;;;;5054662;28;20798;-74
2021/10/11 07:56:04;;;;;;;11.50;6.00;;;14.50;93.50;;;;;;5054463;28;20821;-74
2021/10/11 07:58:31;;;;;;;10.90;6.60;;;14.50;93.00;;;;;;5054460;28;21009;-75
2021/10/11 08:00:58;;;;;;;13.10;6.80;;;14.60;92.90;;;;;;5054714;28;20446;-74
2021/10/11 08:03:25;;;;;;;14.87;6.87;;;14.70;92.70;;;;;;5054672;28;20472;-74
2021/10/11 08:05:52;;;;;;;9.70;5.53;;;14.70;92.50;;;;;;5054213;28;21048;-74
2021/10/11 08:08:19;;;;;;;10.07;6.00;;;14.80;92.10;;;;;;5054453;28;20441;-75
2021/10/11 08:10:47;;;;;;;14.70;6.23;;;14.90;91.80;;;;;;5054032;28;20967;-75
2021/10/11 08:13:14;;;;;;;10.73;5.30;;;14.90;91.50;;;;;;5054001;28;20461;-74
2021/10/11 08:15:41;;;;;;;14.93;5.30;;;15.00;91.30;;;;;;5054322;28;20817;-75
2021/10/11 08:18:07;;;;;;;10.20;6.00;;;15.10;91.20;;;;;;5054223;28;20477;-74
2021/10/11 08:20:34;;;;;;;10.93;6.10;;;15.10;91.00;;;;;;5054146;28;20446;-75
2021/10/11 08:23:02;;;;;;;5.90;4.40;;;15.30;91.00;;;;;;5053780;28;20473;-75
2021/10/11 08:25:28;;;;;;;7.33;4.10;;;15.30;90.90;;;;;;5054366;28;20450;-73
2021/10/11 08:27:57;;;;;;;8.83;4.57;;;15.50;90.50;;;;;;5054106;28;20453;-73
2021/10/11 08:30:23;;;;;;;7.73;3.40;;;15.60;90.00;;;;;;5054079;28;20448;-74
2021/10/11 08:32:50;;;;;;;13.10;3.90;;;15.60;89.40;;;;;;5053925;28;20476;-74
2021/10/11 08:35:17;;;;;;;7.60;3.70;;;15.70;88.70;;;;;;5053685;28;20442;-75
2021/10/11 08:37:44;;;;;;;10.30;3.60;;;15.80;88.00;;;;;;5054080;28;20438;-74
2021/10/11 08:40:11;;;;;;;14.30;3.17;;;16.00;88.50;;;;;;5053877;28;20450;-75
2021/10/11 08:42:40;;;;;;;10.20;3.60;;;16.10;86.70;;;;;;5053499;28;20469;-75
2021/10/11 08:45:09;;;;;;;10.03;3.33;;;16.20;84.40;;;;;;5053539;28;20493;-75
2021/10/11 08:47:36;;;;;;;7.43;2.40;;;16.30;81.80;;;;;;5053664;28;20951;-74
2021/10/11 08:50:04;;;;;;;12.63;3.13;;;16.40;82.40;;;;;;5054614;28;20430;-76
2021/10/11 08:52:31;;;;;;;13.17;3.57;;;16.30;81.00;;;;;;5053596;28;20472;-75
2021/10/11 08:54:57;;;;;;;7.67;2.93;;;16.30;81.60;;;;;;5053314;28;20449;-75
2021/10/11 08:57:26;;;;;;;7.77;2.63;;;16.20;80.70;;;;;;5052988;28;20450;-75
2021/10/11 08:59:55;;;;;;;7.90;2.57;;;16.30;80.90;;;;;;5053509;28;20477;-75
2021/10/11 09:02:24;;;;;;;8.00;2.93;;;16.30;81.70;;;;;;5053169;28;20445;-75
2021/10/11 09:04:55;;;;;;;9.63;3.10;;;16.40;80.90;;;;;;5053614;28;20434;-75
2021/10/11 09:07:24;;;;;;;8.73;2.70;;;16.40;79.50;;;;;;5053268;28;20422;-75
2021/10/11 09:09:52;;;;;;;7.77;2.73;;;16.50;80.30;;;;;;5053468;28;20445;-75
2021/10/11 09:12:21;;;;;;;8.80;3.13;;;16.60;80.30;;;;;;5053379;28;20469;-75
2021/10/11 09:15:03;;;;;;;9.20;2.87;;;16.70;79.80;;;;;;5053399;28;20449;-75
2021/10/11 09:17:34;;;;;;;5.70;2.67;;;16.80;79.50;;;;;;5053398;28;20449;-74
2021/10/11 09:20:09;;;;;;;10.90;2.60;;;16.90;79.70;;;;;;5053002;28;20830;-75
2021/10/11 09:22:37;;;;;;;11.40;2.97;;;17.00;78.90;;;;;;5053059;28;20473;-75
2021/10/11 09:25:05;;;;;;;10.93;2.90;;;17.10;78.20;;;;;;5053342;28;20446;-75
2021/10/11 09:27:43;;;;;;;12.37;2.97;;;17.20;77.40;;;;;;5053285;28;20450;-75
2021/10/11 09:30:10;;;;;;;14.20;3.00;;;17.30;77.10;;;;;;5053345;28;20461;-75
2021/10/11 09:32:38;;;;;;;7.13;2.90;;;17.30;75.40;;;;;;5053219;28;20477;-74
2021/10/11 09:35:14;;;;;;;9.47;2.67;;;17.20;74.60;;;;;;5053271;28;20807;-74
2021/10/11 09:37:41;;;;;;;8.23;2.53;;;17.20;74.60;;;;;;5053238;28;20433;-75
2021/10/11 09:40:09;;;;;;;9.30;2.47;;;17.30;75.30;;;;;;5052781;28;20487;-74
2021/10/11 09:42:36;;;;;;;11.93;2.40;;;17.50;72.90;;;;;;5053124;28;20501;-75
2021/10/11 09:45:05;;;;;;;9.83;2.70;;;17.60;73.60;;;;;;5053186;28;20449;-75
2021/10/11 09:47:34;;;;;;;11.40;3.00;;;17.80;74.30;;;;;;5053130;28;20457;-75
2021/10/11 09:50:05;;;;;;;6.03;2.27;;;17.80;73.40;;;;;;5053364;28;20441;-75
2021/10/11 09:52:32;;;;;;;6.90;2.80;;;17.80;74.10;;;;;;5052973;28;20469;-75
2021/10/11 09:54:59;;;;;;;14.53;2.77;;;17.90;74.30;;;;;;5053350;28;20832;-75
2021/10/11 09:57:26;;;;;;;12.20;2.23;;;17.80;72.70;;;;;;5052989;28;20446;-75
2021/10/11 09:59:53;;;;;;;7.50;2.60;;;17.80;73.10;;;;;;5052935;28;20474;-75
2021/10/11 10:02:26;;;;;;;7.93;2.27;;;17.80;73.10;;;;;;5052890;28;20527;-75
2021/10/11 10:04:57;;;;;;;8.00;1.90;;;17.80;73.00;;;;;;5053291;28;20433;-75
2021/10/11 10:07:28;;;;;;;5.50;2.17;;;17.80;71.80;;;;;;5053003;28;20430;-75
2021/10/11 10:09:56;;;;;;;10.27;3.07;;;17.60;71.90;;;;;;5055219;28;20444;-75
2021/10/11 10:12:23;;;;;;;8.13;2.30;;;17.60;72.80;;;;;;5056694;28;20446;-75
2021/10/11 10:14:59;;;;;;;11.30;2.50;;;17.50;72.30;;;;;;5056653;28;20456;-75
2021/10/11 10:17:30;;;;;;;9.87;2.90;;;17.40;71.90;;;;;;5056644;28;20464;-75
2021/10/11 10:20:08;;;;;;;8.90;2.57;;;17.20;72.30;;;;;;5056420;28;20535;-75
2021/10/11 10:22:37;;;;;;;7.63;2.93;;;17.30;73.40;;;;;;5056424;28;20477;-75
2021/10/11 10:25:06;;;;;;;10.17;2.93;;;17.30;73.50;;;;;;5056648;28;20449;-75
2021/10/11 10:27:36;;;;;;;8.37;2.70;;;17.40;72.70;;;;;;5056128;28;20845;-75
2021/10/11 10:30:17;;;;;;;10.60;3.23;;;17.40;73.10;;;;;;5056368;28;20442;-75
2021/10/11 10:32:53;;;;;;;9.13;3.20;;;17.60;73.80;;;;;;5055974;28;20500;-75
2021/10/11 10:35:20;;;;;;;6.63;2.20;;;17.70;72.50;;;;;;5056891;28;20516;-75
2021/10/11 10:37:48;;;;;;;9.70;2.60;;;17.80;71.70;;;;;;5059130;28;20450;-78
2021/10/11 10:40:17;;;;;;;9.63;2.30;;;17.90;69.00;;;;;;5058535;28;20474;-79
2021/10/11 10:42:45;;;;;;;5.07;1.77;;;17.90;67.80;;;;;;5058034;28;20470;-78
2021/10/11 10:45:18;;;;;;;11.80;2.17;;;17.80;67.10;;;;;;5057337;28;20430;-75
2021/10/11 10:47:47;;;;;;;13.37;2.10;;;17.90;67.00;;;;;;5056044;28;20430;-75
2021/10/11 10:50:17;;;;;;;6.80;1.40;;;17.90;67.70;;;;;;5055662;28;21011;-75
2021/10/11 10:52:48;;;;;;;8.90;1.90;;;17.80;66.30;;;;;;5055848;28;20465;-75
2021/10/11 10:55:16;;;;;;;10.23;2.47;;;17.90;67.90;;;;;;5055897;28;20433;-75
2021/10/11 10:57:44;;;;;;;11.13;2.00;;;17.90;67.10;;;;;;5056106;28;20452;-75
2021/10/11 11:00:16;;;;;;;6.23;2.33;;;18.10;66.30;;;;;;5056562;28;20500;-75
2021/10/11 11:02:46;;;;;;;5.90;1.33;;;18.30;65.80;;;;;;5055691;28;20553;-75
2021/10/11 11:05:14;;;;;;;4.70;2.10;;;18.40;63.70;;;;;;5055741;28;20437;-75
2021/10/11 11:07:43;;;;;;;7.13;1.70;;;18.40;63.20;;;;;;5055652;28;20500;-75
2021/10/11 11:10:15;;;;;;;5.80;1.90;;;18.30;62.30;;;;;;5055576;28;20446;-75
2021/10/11 11:12:44;;;;;;;9.23;2.50;;;18.40;63.80;;;;;;5055750;28;20466;-75
2021/10/11 11:15:12;;;;;;;5.70;1.60;;;18.50;64.20;;;;;;5055572;28;20452;-75
2021/10/11 11:17:41;;;;;;;8.67;2.90;;;18.70;64.90;;;;;;5055747;28;20453;-75
2021/10/11 11:20:20;;;;;;;11.97;3.37;;;18.90;64.20;;;;;;5054813;28;20477;-75
2021/10/11 11:22:47;;;;;;;6.97;1.93;;;18.90;62.10;;;;;;5055320;28;20489;-75
2021/10/11 11:25:16;;;;;;;7.70;2.07;;;18.80;62.30;;;;;;5055415;28;20468;-75
2021/10/11 11:27:45;;;;;;;8.20;1.90;;;18.70;62.70;;;;;;5055315;28;20445;-75
2021/10/11 11:30:14;;;;;;;9.73;2.20;;;18.70;64.10;;;;;;5055258;28;20438;-75
2021/10/11 11:32:48;;;;;;;8.10;2.47;;;18.70;63.60;;;;;;5055128;28;20478;-75
2021/10/11 11:35:25;;;;;;;8.07;2.10;;;18.80;63.30;;;;;;5055177;28;20430;-75
2021/10/11 11:37:55;;;;;;;5.57;2.30;;;19.00;63.30;;;;;;5055098;28;20432;-75
2021/10/11 11:40:25;;;;;;;5.73;2.27;;;19.20;62.30;;;;;;5055043;28;20485;-75
2021/10/11 11:42:55;;;;;;;8.40;2.80;;;19.50;62.20;;;;;;5055049;28;20457;-75
2021/10/11 11:45:24;;;;;;;4.40;1.90;;;19.60;60.30;;;;;;5054974;28;20771;-75
2021/10/11 11:47:51;;;;;;;7.17;1.70;;;19.50;60.50;;;;;;5055000;28;20437;-75
2021/10/11 11:50:23;;;;;;;8.37;1.60;;;19.40;60.30;;;;;;5054889;28;20814;-75
2021/10/11 11:53:03;;;;;;;5.37;1.87;;;19.50;61.60;;;;;;5054738;28;20845;-75
2021/10/11 11:55:32;;;;;;;7.50;2.33;;;19.50;60.50;;;;;;5054753;28;20441;-75
2021/10/11 11:57:59;;;;;;;10.20;2.47;;;19.60;60.70;;;;;;5054653;28;20449;-74
2021/10/11 12:00:30;;;;;;;8.47;2.07;;;19.70;60.60;;;;;;5055223;28;20477;-74
2021/10/11 12:02:57;;;;;;;10.00;2.40;;;19.90;58.70;;;;;;5054793;28;20461;-75
2021/10/11 12:05:26;;;;;;;5.53;1.90;;;19.90;58.50;;;;;;5054532;28;20452;-74
2021/10/11 12:07:54;;;;;;;2.97;1.43;;;20.00;57.80;;;;;;5054520;28;20442;-75
2021/10/11 12:10:23;;;;;;;4.70;1.50;;;20.30;56.70;;;;;;5054157;28;20445;-73
2021/10/11 12:12:59;;;;;;;5.47;2.10;;;20.40;56.60;;;;;;5054298;28;20580;-73
2021/10/11 12:15:26;;;;;;;10.33;2.37;;;20.50;56.90;;;;;;5054356;28;20469;-74
2021/10/11 12:18:03;;;;;;;6.67;2.20;;;20.80;56.00;;;;;;5054023;28;20962;-73
2021/10/11 12:20:40;;;;;;;3.30;1.83;;;20.80;55.30;;;;;;5054177;28;20474;-74
2021/10/11 12:23:07;;;;;;;6.00;1.60;;;20.80;56.20;;;;;;5053894;28;20477;-74
2021/10/11 12:25:34;;;;;;;8.83;1.90;;;20.70;56.20;;;;;;5054186;28;20429;-76
2021/10/11 12:28:13;;;;;;;9.07;1.97;;;20.20;56.80;;;;;;5054091;28;20440;-74
2021/10/11 12:30:40;;;;;;;8.07;2.70;;;19.90;58.10;;;;;;5053818;28;20908;-74
2021/10/11 12:33:13;;;;;;;8.33;1.70;;;19.70;59.20;;;;;;5052856;28;20979;-74
2021/10/11 12:35:40;;;;;;;5.83;1.53;;;19.40;59.50;;;;;;5054014;28;20441;-74
2021/10/11 12:38:07;;;;;;;7.47;2.20;;;19.20;60.60;;;;;;5053948;28;20430;-74